Diagonal, Iowa
Current Conditions -  °F | °C
As of 9:55 AM on Friday 31 Oct 2014 (Local Time) from KCSQ Reporting Station
Clear Clear  
Wind Chill: 18°   Ceiling: Unl
Heat Index: 30°   Visibility: 10mi
Dew Point: 19°   Wind: 18mph
Humidity: 64%   Direction: 10°N
Pressure: 30.49"   Gusts: NA
Location:  40.81°N, 94.34°W
Report Text: KCSQ 311455Z AUTO 01016KT 10SM CLR M01/M07 A3049 RMK AO2
Loading
Personal Weather Stations






























Interactive Weather Map
Tropical Storm Tracking
New forecast layout! Learn more

10-Day Weather Forecast

Advertisements
Track Severe Weather on mobile